Boulsa Airport


Codes: DFEA/XBO
Name: Boulsa Airport
City: Boulsa
Country: Burkina Faso
Elevation: 984 ft.

Photos at Boulsa Airport


   Photos courtesy of SpottingLog. You can add your own sightings and photos by signing up for a free trial today.



No photos found.

Weather at Boulsa Airport


Time (UTC)DescriptionTempratureWindCloud coverageVisibilityPressureHumidity
16-Jun-2024 12:00Overcast Clouds32°C9 mph, S94%10000m1011hPa44%
16-Jun-2024 15:00Overcast Clouds33°C11 mph, S95%10000m1009hPa39%
16-Jun-2024 18:00Overcast Clouds33°C11 mph, S88%10000m1008hPa40%
16-Jun-2024 21:00Scattered Clouds31°C11 mph, S48%10000m1011hPa48%
17-Jun-2024 00:00Scattered Clouds29°C11 mph, S29%10000m1011hPa57%
17-Jun-2024 03:00Few Clouds28°C11 mph, S16%10000m1010hPa64%
17-Jun-2024 06:00Few Clouds27°C11 mph, SW15%10000m1012hPa70%
17-Jun-2024 09:00Few Clouds30°C11 mph, SW19%10000m1013hPa59%
17-Jun-2024 12:00Scattered Clouds34°C9 mph, S29%10000m1011hPa43%
17-Jun-2024 15:00Scattered Clouds36°C7 mph, SE42%10000m1008hPa35%
17-Jun-2024 18:00Scattered Clouds36°C9 mph, SE43%10000m1009hPa34%
17-Jun-2024 21:00Clear Sky34°C7 mph, SE10%10000m1010hPa38%
18-Jun-2024 00:00Scattered Clouds31°C18 mph, S37%10000m1011hPa51%
18-Jun-2024 03:00Light Rain27°C11 mph, SW100%10000m1011hPa66%
18-Jun-2024 06:00Light Rain27°C13 mph, SW100%10000m1012hPa62%
18-Jun-2024 09:00Light Rain30°C16 mph, E100%10000m1016hPa54%
18-Jun-2024 12:00Light Rain33°C11 mph, E100%10000m1013hPa36%
18-Jun-2024 15:00Overcast Clouds37°C13 mph, SE87%10000m1009hPa20%
18-Jun-2024 18:00Overcast Clouds36°C4 mph, W93%10000m1007hPa24%
18-Jun-2024 21:00Overcast Clouds32°C11 mph, SE97%10000m1010hPa36%
19-Jun-2024 00:00Overcast Clouds30°C9 mph, S97%10000m1010hPa46%
19-Jun-2024 03:00Broken Clouds29°C7 mph, SW64%10000m1010hPa54%
19-Jun-2024 06:00Broken Clouds28°C9 mph, SW72%10000m1010hPa57%
19-Jun-2024 09:00Overcast Clouds32°C13 mph, SW92%10000m1010hPa46%
19-Jun-2024 12:00Overcast Clouds37°C9 mph, SW85%10000m1009hPa32%
19-Jun-2024 15:00Few Clouds38°C2 mph, W18%10000m1007hPa26%
19-Jun-2024 18:00Scattered Clouds38°C2 mph, W37%10000m1007hPa26%
19-Jun-2024 21:00Few Clouds36°C4 mph, SW18%10000m1007hPa31%
20-Jun-2024 00:00Scattered Clouds34°C11 mph, S34%10000m1008hPa39%
20-Jun-2024 03:00Broken Clouds30°C18 mph, S65%10000m1008hPa59%
20-Jun-2024 06:00Broken Clouds28°C16 mph, SW65%10000m1009hPa63%
20-Jun-2024 09:00Overcast Clouds31°C16 mph, SW97%10000m1011hPa49%
20-Jun-2024 12:00Overcast Clouds36°C13 mph, SW97%10000m1009hPa37%
20-Jun-2024 15:00Clear Sky38°C9 mph, SW2%10000m1006hPa31%
20-Jun-2024 18:00Clear Sky37°C7 mph, SW6%10000m1006hPa31%
20-Jun-2024 21:00Clear Sky35°C9 mph, S7%10000m1008hPa38%
21-Jun-2024 00:00Moderate Rain29°C20 mph, SE39%10000m1012hPa60%
21-Jun-2024 03:00Light Rain29°C13 mph, SW100%10000m1008hPa52%
21-Jun-2024 06:00Light Rain28°C11 mph, SW98%10000m1011hPa63%
21-Jun-2024 09:00Broken Clouds31°C13 mph, S83%10000m1012hPa53%